createdAt,value
2018-02-17T00:02:19.683Z,2.50
2018-02-17T00:04:48.012Z,1.60
2018-02-17T00:07:17.130Z,2.80
2018-02-17T00:09:45.917Z,2.50
2018-02-17T00:12:14.459Z,2.43
2018-02-17T00:14:42.796Z,2.77
2018-02-17T00:17:11.170Z,2.90
2018-02-17T00:19:39.501Z,3.77
2018-02-17T00:22:07.879Z,2.10
2018-02-17T00:24:37.111Z,1.77
2018-02-17T00:27:05.758Z,3.37
2018-02-17T00:29:34.764Z,2.67
2018-02-17T00:32:03.112Z,2.00
2018-02-17T00:34:31.811Z,3.13
2018-02-17T00:37:00.222Z,2.30
2018-02-17T00:39:28.546Z,3.50
2018-02-17T00:41:56.887Z,8.77
2018-02-17T00:44:25.971Z,1.93
2018-02-17T00:46:54.325Z,2.50
2018-02-17T00:49:22.651Z,2.13
2018-02-17T00:51:51.374Z,3.27
2018-02-17T00:54:19.775Z,2.17
2018-02-17T00:56:48.112Z,2.50
2018-02-17T00:59:16.435Z,3.67
2018-02-17T01:01:44.762Z,2.43
2018-02-17T01:04:13.083Z,2.90
2018-02-17T01:06:41.430Z,2.07
2018-02-17T01:09:09.771Z,2.23
2018-02-17T01:11:38.131Z,2.20
2018-02-17T01:14:07.242Z,2.40
2018-02-17T01:16:35.595Z,2.63
2018-02-17T01:19:04.675Z,1.93
2018-02-17T01:21:34.310Z,2.63
2018-02-17T01:24:03.022Z,3.40
2018-02-17T01:26:31.369Z,2.60
2018-02-17T01:28:59.703Z,1.70
2018-02-17T01:31:28.059Z,3.53
2018-02-17T01:33:57.415Z,2.30
2018-02-17T01:36:25.747Z,2.50
2018-02-17T01:38:54.093Z,2.63
2018-02-17T01:41:22.443Z,2.43
2018-02-17T01:43:50.779Z,2.00
2018-02-17T01:46:19.093Z,1.70
2018-02-17T01:48:47.431Z,3.10
2018-02-17T01:51:15.787Z,2.87
2018-02-17T01:53:44.320Z,5.33
2018-02-17T01:56:12.635Z,1.70
2018-02-17T01:58:41.012Z,4.70
2018-02-17T02:01:09.355Z,4.80
2018-02-17T02:03:37.749Z,2.33
2018-02-17T02:06:06.079Z,3.27
2018-02-17T02:08:34.795Z,2.93
2018-02-17T02:11:03.451Z,3.80
2018-02-17T02:13:31.787Z,2.70
2018-02-17T02:16:00.663Z,5.43
2018-02-17T02:18:29.019Z,4.83
2018-02-17T02:20:57.324Z,3.13
2018-02-17T02:23:26.317Z,4.70
2018-02-17T02:25:54.633Z,4.30
2018-02-17T02:28:22.979Z,3.23
2018-02-17T02:30:51.732Z,6.10
2018-02-17T02:33:20.838Z,3.20
2018-02-17T02:35:50.062Z,3.50
2018-02-17T02:38:18.436Z,4.53
2018-02-17T02:40:46.767Z,4.77
2018-02-17T02:43:15.749Z,2.63
2018-02-17T02:45:46.521Z,2.97
2018-02-17T02:48:14.865Z,9.13
2018-02-17T02:50:43.177Z,3.40
2018-02-17T02:53:11.907Z,2.20
2018-02-17T02:55:40.342Z,2.40
2018-02-17T02:58:08.674Z,2.57
2018-02-17T03:00:37.004Z,2.20
2018-02-17T03:03:06.112Z,2.67
2018-02-17T03:05:35.012Z,1.83
2018-02-17T03:08:03.360Z,3.50
2018-02-17T03:10:31.683Z,3.10
2018-02-17T03:12:59.994Z,2.47
2018-02-17T03:15:29.063Z,6.40
2018-02-17T03:17:57.402Z,5.17
2018-02-17T03:20:25.738Z,3.27
2018-02-17T03:22:54.059Z,5.50
2018-02-17T03:25:22.408Z,4.10
2018-02-17T03:27:50.725Z,5.73
2018-02-17T03:30:19.105Z,8.03
2018-02-17T03:32:48.183Z,2.90
2018-02-17T03:35:16.531Z,3.20
2018-02-17T03:37:45.179Z,5.70
2018-02-17T03:40:13.532Z,3.97
2018-02-17T03:42:41.862Z,6.20
2018-02-17T03:45:10.955Z,4.60
2018-02-17T03:47:39.291Z,2.83
2018-02-17T03:50:08.399Z,4.73
2018-02-17T03:52:36.736Z,2.37
2018-02-17T03:55:05.087Z,3.37
2018-02-17T03:57:33.417Z,2.50
2018-02-17T04:00:01.766Z,3.87
2018-02-17T04:02:30.111Z,2.80
2018-02-17T04:04:58.466Z,2.00
2018-02-17T04:07:26.796Z,2.70
2018-02-17T04:09:55.167Z,3.07
2018-02-17T04:12:23.481Z,2.30
2018-02-17T04:14:51.828Z,4.00
2018-02-17T04:17:20.169Z,4.60
2018-02-17T04:19:48.539Z,2.83
2018-02-17T04:22:16.859Z,3.67
2018-02-17T04:24:45.222Z,2.50
2018-02-17T04:27:14.064Z,4.20
2018-02-17T04:29:42.716Z,3.70
2018-02-17T04:32:11.034Z,2.47
2018-02-17T04:34:39.370Z,2.27
2018-02-17T04:37:07.750Z,3.10
2018-02-17T04:39:54.789Z,3.23
2018-02-17T04:42:25.695Z,2.43
2018-02-17T04:47:59.807Z,2.53
2018-02-17T04:50:43.050Z,2.70
2018-02-17T04:53:12.505Z,2.47
2018-02-17T04:55:59.887Z,2.57
2018-02-17T04:58:47.266Z,2.30
2018-02-17T05:01:30.495Z,2.40
2018-02-17T05:04:10.468Z,2.27
2018-02-17T05:06:39.573Z,2.80
2018-02-17T05:09:07.915Z,2.73
2018-02-17T05:11:36.281Z,2.90
2018-02-17T05:14:18.187Z,3.20
2018-02-17T05:17:02.207Z,2.60
2018-02-17T05:19:34.991Z,2.93
2018-02-17T05:22:18.221Z,2.13
2018-02-17T05:25:02.355Z,2.07
2018-02-17T05:27:30.679Z,2.33
2018-02-17T05:29:58.993Z,2.77
2018-02-17T05:32:30.628Z,3.00
2018-02-17T05:35:02.537Z,2.80
2018-02-17T05:37:30.876Z,2.00
2018-02-17T05:39:59.675Z,2.77
2018-02-17T05:42:32.684Z,2.93
2018-02-17T05:45:03.920Z,2.87
2018-02-17T05:47:33.496Z,2.77
2018-02-17T05:50:02.426Z,2.37
2018-02-17T05:52:32.067Z,2.40
2018-02-17T05:55:00.403Z,2.50
2018-02-17T05:57:28.760Z,2.57
2018-02-17T05:59:57.093Z,2.30
2018-02-17T06:02:25.679Z,1.83
2018-02-17T06:04:53.997Z,2.27
2018-02-17T06:07:23.502Z,2.20
2018-02-17T06:09:51.827Z,2.20
2018-02-17T06:12:20.171Z,2.33
2018-02-17T06:14:48.503Z,2.80
2018-02-17T06:17:16.882Z,3.93
2018-02-17T06:19:45.205Z,2.77
2018-02-17T06:22:13.528Z,2.23
2018-02-17T06:24:42.604Z,2.47
2018-02-17T06:27:10.922Z,2.53
2018-02-17T06:29:40.408Z,2.77
2018-02-17T06:32:08.719Z,2.33
2018-02-17T06:34:37.066Z,2.23
2018-02-17T06:37:05.398Z,2.37
2018-02-17T06:39:34.015Z,2.63
2018-02-17T06:42:02.343Z,2.50
2018-02-17T06:44:30.681Z,3.43
2018-02-17T06:46:59.563Z,3.03
2018-02-17T06:49:28.662Z,3.23
2018-02-17T06:51:56.986Z,2.43
2018-02-17T06:54:25.312Z,2.57
2018-02-17T06:56:53.643Z,2.63
2018-02-17T06:59:22.013Z,2.50
2018-02-17T07:01:50.340Z,3.00
2018-02-17T07:04:18.678Z,2.50
2018-02-17T07:06:46.997Z,2.63
2018-02-17T07:09:16.103Z,2.73
2018-02-17T07:11:44.408Z,2.50
2018-02-17T07:14:13.912Z,2.53
2018-02-17T07:16:42.221Z,3.47
2018-02-17T07:19:10.590Z,6.53
2018-02-17T07:21:38.912Z,2.60
2018-02-17T07:24:07.263Z,3.17
2018-02-17T07:26:36.569Z,3.27
2018-02-17T07:29:10.369Z,3.30
2018-02-17T07:31:38.779Z,2.40
2018-02-17T07:34:08.078Z,2.60
2018-02-17T07:36:38.170Z,2.43
2018-02-17T07:39:07.076Z,3.20
2018-02-17T07:41:35.384Z,3.20
2018-02-17T07:44:04.478Z,3.67
2018-02-17T07:46:32.856Z,2.80
2018-02-17T07:49:01.935Z,2.70
2018-02-17T07:51:33.704Z,2.70
2018-02-17T07:54:02.319Z,2.40
2018-02-17T07:56:31.006Z,3.03
2018-02-17T07:58:59.326Z,2.50
2018-02-17T08:01:27.660Z,2.60
2018-02-17T08:03:55.979Z,2.67
2018-02-17T08:06:24.330Z,2.40
2018-02-17T08:08:52.656Z,2.63
2018-02-17T08:11:20.989Z,2.40
2018-02-17T08:13:49.321Z,2.63
2018-02-17T08:16:17.850Z,2.43
2018-02-17T08:18:47.130Z,2.53
2018-02-17T08:21:15.462Z,2.43
2018-02-17T08:23:43.788Z,2.57
2018-02-17T08:26:12.138Z,2.90
2018-02-17T08:28:40.467Z,2.43
2018-02-17T08:31:08.908Z,2.43
2018-02-17T08:33:37.240Z,2.30
2018-02-17T08:36:05.694Z,3.10
2018-02-17T08:38:34.100Z,2.53
2018-02-17T08:41:02.504Z,1.90
2018-02-17T08:43:30.853Z,2.23
2018-02-17T08:45:59.199Z,2.93
2018-02-17T08:48:28.289Z,5.27
2018-02-17T08:50:56.657Z,2.67
2018-02-17T08:53:24.972Z,2.57
2018-02-17T08:55:54.202Z,2.87
2018-02-17T08:58:22.534Z,2.90
2018-02-17T09:00:50.892Z,7.00
2018-02-17T09:03:19.214Z,2.40
2018-02-17T09:05:47.535Z,6.43
2018-02-17T09:08:16.480Z,3.57
2018-02-17T09:10:50.074Z,3.13
2018-02-17T09:13:18.399Z,3.97
2018-02-17T09:15:46.724Z,2.50
2018-02-17T09:18:15.119Z,4.53
2018-02-17T09:20:43.424Z,3.33
2018-02-17T09:23:11.763Z,4.13
2018-02-17T09:25:40.086Z,3.93
2018-02-17T09:28:08.427Z,2.97
2018-02-17T09:30:37.511Z,2.93
2018-02-17T09:33:05.852Z,4.73
2018-02-17T09:35:34.180Z,2.77
2018-02-17T09:38:02.526Z,2.57
2018-02-17T09:40:31.171Z,2.60
2018-02-17T09:42:59.702Z,3.00
2018-02-17T11:07:25.797Z,118.60
2018-02-17T11:09:54.183Z,120.67
2018-02-17T11:12:22.601Z,101.43
2018-02-17T11:14:50.947Z,99.57
2018-02-17T11:17:20.067Z,95.53
2018-02-17T11:19:48.431Z,91.43
2018-02-17T11:22:16.755Z,111.80
2018-02-17T11:24:46.674Z,97.93
2018-02-17T11:27:15.832Z,99.87
2018-02-17T11:29:44.191Z,83.47
2018-02-17T11:32:12.570Z,89.83
2018-02-17T11:34:40.919Z,85.90
2018-02-17T11:37:10.022Z,79.70
2018-02-17T11:39:39.147Z,76.27
2018-02-17T11:42:07.479Z,83.17
2018-02-17T11:44:35.824Z,73.27
2018-02-17T11:47:04.149Z,78.13
2018-02-17T11:49:33.278Z,75.33
2018-02-17T11:52:01.626Z,73.10
2018-02-17T11:54:29.992Z,78.63
2018-02-17T11:56:59.087Z,77.20
2018-02-17T11:59:28.407Z,67.77
2018-02-17T12:01:56.709Z,77.73
2018-02-17T12:04:25.684Z,68.23
2018-02-17T12:06:54.011Z,69.13
